Yockey, Indiana
Current Conditions -  °F | °C
As of 1:06 PM on Friday 24 Oct 2014 (Local Time) from KBMG Reporting Station
Scattered Clouds Scattered Clouds  
Wind Chill: 61°   Ceiling: Unl
Heat Index: 61°   Visibility: 10mi
Dew Point: 47°   Wind: 7mph
Humidity: 60%   Direction: 200°SSW
Pressure: 30.1"   Gusts: NA
Location:  38.7366°N, 86.4546°W
Report Text: KBMG 241706Z 20006KT 10SM SCT025 16/08 A3010 RMK AO2 T01610083
Loading
Personal Weather Stations






























Interactive Weather Map
Tropical Storm Tracking
New forecast layout! Learn more

10-Day Weather Forecast

Advertisements
Track Severe Weather on mobile